Time;durP1;ratioP1;P1;durP2;ratioP2;P2;SDS_P1;SDS_P2;PMS_P1;PMS_P2;Temp;Humidity;BMP_temperature;BMP_pressure;BME280_temperature;BME280_humidity;BME280_pressure;Samples;Min_cycle;Max_cycle;Signal;HPM_P1;HPM_P2
2024/03/24 00:00:02;;;;;;;1.87;1.77;;;5.30;57.00;;;;;;5031059;28;20238;-58
2024/03/24 00:02:28;;;;;;;1.90;1.80;;;5.30;57.10;;;;;;5021701;28;20230;-54
2024/03/24 00:04:54;;;;;;;1.70;1.60;;;5.20;56.90;;;;;;5029023;28;20572;-56
2024/03/24 00:07:20;;;;;;;2.30;2.10;;;5.30;57.00;;;;;;5039569;28;20574;-56
2024/03/24 00:09:46;;;;;;;1.80;1.70;;;5.30;57.30;;;;;;5035423;28;20291;-56
2024/03/24 00:12:12;;;;;;;2.17;1.63;;;5.20;57.50;;;;;;5034962;28;20296;-57
2024/03/24 00:14:39;;;;;;;2.20;1.80;;;5.20;57.10;;;;;;5034060;28;20199;-56
2024/03/24 00:17:04;;;;;;;1.80;1.70;;;5.20;57.30;;;;;;5032672;28;20218;-56
2024/03/24 00:19:31;;;;;;;2.07;1.87;;;5.20;57.30;;;;;;5025461;28;20196;-53
2024/03/24 00:21:56;;;;;;;1.70;1.60;;;5.20;57.20;;;;;;5033044;28;20594;-58
2024/03/24 00:24:23;;;;;;;2.97;1.93;;;5.30;57.10;;;;;;5033663;28;20209;-57
2024/03/24 00:26:49;;;;;;;1.93;1.83;;;5.20;57.40;;;;;;5038781;28;20220;-58
2024/03/24 00:29:15;;;;;;;2.03;1.93;;;5.30;57.40;;;;;;5033609;28;20199;-57
2024/03/24 00:31:41;;;;;;;2.10;1.90;;;5.30;58.20;;;;;;5030617;28;20226;-56
2024/03/24 00:34:07;;;;;;;1.83;1.70;;;5.30;57.90;;;;;;5030045;28;20211;-56
2024/03/24 00:36:33;;;;;;;2.47;1.90;;;5.50;57.50;;;;;;5028944;28;20220;-56
2024/03/24 00:38:59;;;;;;;3.10;1.90;;;5.40;58.10;;;;;;5039371;28;20202;-53
2024/03/24 00:41:25;;;;;;;1.80;1.70;;;5.30;58.40;;;;;;5037403;28;20236;-55
2024/03/24 00:43:52;;;;;;;1.90;1.80;;;5.30;58.80;;;;;;5030501;28;20719;-57
2024/03/24 00:46:18;;;;;;;1.77;1.67;;;5.30;58.80;;;;;;5035084;28;20208;-56
2024/03/24 00:48:44;;;;;;;1.90;1.80;;;5.20;58.30;;;;;;5035322;28;20257;-56
2024/03/24 00:51:10;;;;;;;1.73;1.63;;;5.10;58.60;;;;;;5034123;28;20584;-57
2024/03/24 00:53:36;;;;;;;3.40;2.13;;;5.00;59.10;;;;;;5027111;28;20205;-56
2024/03/24 00:56:02;;;;;;;1.97;1.77;;;4.90;59.20;;;;;;5032126;28;20203;-57
2024/03/24 00:58:28;;;;;;;3.63;1.80;;;5.00;59.40;;;;;;5030663;28;20217;-57
2024/03/24 01:00:54;;;;;;;2.20;1.90;;;5.00;59.60;;;;;;5026474;28;20223;-55
2024/03/24 01:03:21;;;;;;;1.70;1.60;;;5.00;59.70;;;;;;5035102;28;20307;-57
2024/03/24 01:05:48;;;;;;;2.37;1.77;;;5.00;59.60;;;;;;5035367;28;20226;-56
2024/03/24 01:08:14;;;;;;;2.03;1.60;;;5.00;59.60;;;;;;5030266;28;20293;-57
2024/03/24 01:10:40;;;;;;;1.80;1.70;;;4.90;60.30;;;;;;5035281;28;20196;-57
2024/03/24 01:13:06;;;;;;;1.70;1.60;;;4.90;59.40;;;;;;5035472;28;20234;-56
2024/03/24 01:15:32;;;;;;;1.67;1.57;;;4.80;59.80;;;;;;5031750;28;20294;-57
2024/03/24 01:17:59;;;;;;;2.20;1.70;;;4.80;60.10;;;;;;5030724;28;20210;-57
2024/03/24 01:20:24;;;;;;;1.60;1.50;;;4.80;60.10;;;;;;5026482;28;20641;-56
2024/03/24 01:22:51;;;;;;;1.83;1.70;;;4.80;60.20;;;;;;5035112;28;20311;-56
2024/03/24 01:25:16;;;;;;;2.87;1.83;;;4.90;60.40;;;;;;5031921;28;20242;-57
2024/03/24 01:27:43;;;;;;;4.30;1.90;;;5.00;60.00;;;;;;5034953;28;20214;-57
2024/03/24 01:30:09;;;;;;;2.00;1.80;;;5.00;59.80;;;;;;5035093;28;20658;-57
2024/03/24 01:32:36;;;;;;;1.73;1.43;;;4.90;59.80;;;;;;5034675;28;20375;-57
2024/03/24 01:35:01;;;;;;;2.10;1.90;;;4.90;60.10;;;;;;5030876;28;20207;-54
2024/03/24 01:37:28;;;;;;;1.70;1.60;;;4.90;60.60;;;;;;5033751;28;20198;-57
2024/03/24 01:39:53;;;;;;;2.60;1.93;;;5.10;59.40;;;;;;5034765;28;20206;-57
2024/03/24 01:42:20;;;;;;;1.77;1.67;;;5.10;59.60;;;;;;5031234;28;20234;-53
2024/03/24 01:44:46;;;;;;;1.60;1.50;;;5.10;59.70;;;;;;5026615;28;20199;-55
2024/03/24 01:47:12;;;;;;;1.50;1.40;;;5.10;60.00;;;;;;5041851;28;20196;-56
2024/03/24 01:49:38;;;;;;;1.73;1.50;;;5.10;59.90;;;;;;5034452;28;20211;-57
2024/03/24 01:52:05;;;;;;;1.73;1.63;;;5.10;59.70;;;;;;5031454;28;20723;-52
2024/03/24 01:54:30;;;;;;;2.00;1.67;;;5.10;59.80;;;;;;5025748;28;20209;-56
2024/03/24 01:56:57;;;;;;;1.60;1.50;;;5.10;59.60;;;;;;5036133;28;20592;-54
2024/03/24 01:59:22;;;;;;;1.60;1.50;;;5.10;60.00;;;;;;5028229;28;20681;-56
2024/03/24 02:01:50;;;;;;;2.00;1.40;;;5.10;60.00;;;;;;5031233;28;20234;-56
2024/03/24 02:04:15;;;;;;;1.50;1.40;;;5.10;60.40;;;;;;5033985;28;20225;-56
2024/03/24 02:06:42;;;;;;;1.60;1.50;;;5.00;61.30;;;;;;5032621;28;20203;-56
2024/03/24 02:09:07;;;;;;;2.63;1.80;;;5.10;61.80;;;;;;5034180;28;20211;-57
2024/03/24 02:11:34;;;;;;;1.40;1.40;;;5.10;62.20;;;;;;5033296;28;20741;-54
2024/03/24 02:13:59;;;;;;;2.87;1.60;;;5.10;61.90;;;;;;5021667;28;20211;-55
2024/03/24 02:16:26;;;;;;;1.30;1.30;;;5.10;62.50;;;;;;5029487;28;20210;-56
2024/03/24 02:18:51;;;;;;;1.40;1.40;;;5.00;63.00;;;;;;5033848;28;20203;-56
2024/03/24 02:21:18;;;;;;;1.50;1.40;;;4.90;62.60;;;;;;5033644;28;20240;-55
2024/03/24 02:23:44;;;;;;;1.60;1.50;;;4.80;63.40;;;;;;5033517;28;20210;-57
2024/03/24 02:26:10;;;;;;;1.70;1.60;;;4.70;63.60;;;;;;5032636;28;20205;-57
2024/03/24 02:28:36;;;;;;;1.70;1.60;;;4.70;63.80;;;;;;5033218;28;20218;-57
2024/03/24 02:31:02;;;;;;;1.60;1.50;;;4.70;64.00;;;;;;5021721;28;20199;-57
2024/03/24 02:33:28;;;;;;;1.73;1.63;;;4.70;64.80;;;;;;5030017;28;20207;-56
2024/03/24 02:35:54;;;;;;;1.70;1.60;;;4.60;65.00;;;;;;5027422;28;20258;-56
2024/03/24 02:38:20;;;;;;;1.40;1.40;;;4.60;64.20;;;;;;5033175;28;20598;-56
2024/03/24 02:40:47;;;;;;;1.57;1.47;;;4.70;64.40;;;;;;5033722;28;20231;-56
2024/03/24 02:43:12;;;;;;;1.70;1.60;;;4.70;64.50;;;;;;5032652;28;20226;-57
2024/03/24 02:45:39;;;;;;;1.70;1.60;;;4.70;65.00;;;;;;5027517;28;20219;-56
2024/03/24 02:48:04;;;;;;;2.73;1.60;;;4.70;65.20;;;;;;5024286;28;20203;-55
2024/03/24 02:50:31;;;;;;;1.60;1.50;;;4.60;64.90;;;;;;5028610;28;20205;-56
2024/03/24 02:52:56;;;;;;;1.70;1.60;;;4.60;65.40;;;;;;5033352;28;20227;-57
2024/03/24 02:55:25;;;;;;;1.80;1.70;;;4.50;65.00;;;;;;5033234;28;20215;-55
2024/03/24 02:57:50;;;;;;;1.47;1.40;;;4.60;65.40;;;;;;5033156;28;20206;-57
2024/03/24 03:00:17;;;;;;;1.40;1.40;;;4.50;65.40;;;;;;5028655;28;20221;-57
2024/03/24 03:02:43;;;;;;;1.60;1.50;;;4.40;65.20;;;;;;5036661;28;20605;-54
2024/03/24 03:05:10;;;;;;;1.53;1.50;;;4.60;65.20;;;;;;5028961;28;20210;-57
2024/03/24 03:07:36;;;;;;;1.70;1.60;;;4.60;65.20;;;;;;5016784;28;20208;-56
2024/03/24 03:10:04;;;;;;;1.50;1.50;;;4.60;64.80;;;;;;5030952;28;20222;-57
2024/03/24 03:12:31;;;;;;;1.60;1.50;;;4.50;65.00;;;;;;5035115;28;20291;-56
2024/03/24 03:14:56;;;;;;;1.60;1.50;;;4.50;65.50;;;;;;5029018;28;20209;-57
2024/03/24 03:17:23;;;;;;;1.70;1.60;;;4.60;65.10;;;;;;5031553;28;20303;-54
2024/03/24 03:19:48;;;;;;;1.50;1.50;;;4.60;65.30;;;;;;5025054;28;20298;-57
2024/03/24 03:22:15;;;;;;;1.57;1.47;;;4.60;64.80;;;;;;5027292;28;20692;-55
2024/03/24 03:24:40;;;;;;;1.57;1.50;;;4.60;64.80;;;;;;5020957;28;20215;-58
2024/03/24 03:27:10;;;;;;;1.50;1.50;;;4.60;65.40;;;;;;5029256;28;20202;-53
2024/03/24 03:29:36;;;;;;;1.70;1.60;;;4.50;65.80;;;;;;5033266;28;20220;-57
2024/03/24 03:32:02;;;;;;;1.60;1.50;;;4.50;64.80;;;;;;5027920;28;20612;-58
2024/03/24 03:34:28;;;;;;;1.80;1.70;;;4.50;64.50;;;;;;5033919;28;20280;-56
2024/03/24 03:36:55;;;;;;;1.87;1.67;;;4.60;65.30;;;;;;5033573;28;20661;-56
2024/03/24 03:39:20;;;;;;;1.80;1.70;;;4.50;64.70;;;;;;5033119;28;20671;-57
2024/03/24 03:41:47;;;;;;;1.90;1.80;;;4.40;65.30;;;;;;5016249;28;20232;-55
2024/03/24 03:44:13;;;;;;;1.70;1.60;;;4.50;64.00;;;;;;5029229;28;20209;-53
2024/03/24 03:46:39;;;;;;;2.03;1.70;;;4.50;64.50;;;;;;5024634;28;20206;-53
2024/03/24 03:49:06;;;;;;;1.70;1.60;;;4.50;64.30;;;;;;5031863;28;20213;-53
2024/03/24 03:51:37;;;;;;;1.60;1.50;;;4.60;64.70;;;;;;5025445;28;20689;-55
2024/03/24 03:54:03;;;;;;;1.80;1.70;;;4.70;63.30;;;;;;5026788;28;20207;-56
2024/03/24 03:56:29;;;;;;;2.33;1.70;;;4.60;63.90;;;;;;5035000;28;20206;-57
2024/03/24 03:58:55;;;;;;;2.00;1.90;;;4.70;64.10;;;;;;5034628;28;20289;-58
2024/03/24 04:01:21;;;;;;;2.07;1.90;;;4.60;64.30;;;;;;5028926;28;20221;-58
2024/03/24 04:03:48;;;;;;;1.67;1.57;;;4.70;64.40;;;;;;5033131;28;20203;-56
2024/03/24 04:06:14;;;;;;;2.77;1.50;;;4.70;63.60;;;;;;5027958;28;20221;-57
2024/03/24 04:08:40;;;;;;;1.50;1.50;;;4.70;63.30;;;;;;5028541;28;20647;-57
2024/03/24 04:11:07;;;;;;;1.70;1.60;;;4.70;63.80;;;;;;5027544;28;20200;-58
2024/03/24 04:13:33;;;;;;;2.50;1.70;;;4.80;63.60;;;;;;5029041;28;20241;-57
2024/03/24 04:15:59;;;;;;;1.60;1.60;;;4.90;63.50;;;;;;5030042;28;20208;-57
2024/03/24 04:18:25;;;;;;;1.97;1.53;;;4.70;64.20;;;;;;5035030;28;20208;-57
2024/03/24 04:20:52;;;;;;;1.60;1.50;;;4.70;64.50;;;;;;5034885;28;20261;-56
2024/03/24 04:23:19;;;;;;;1.57;1.47;;;4.70;64.70;;;;;;5033824;28;20215;-57
2024/03/24 04:25:44;;;;;;;1.97;1.60;;;4.60;65.00;;;;;;5035089;28;20261;-55
2024/03/24 04:28:11;;;;;;;1.70;1.60;;;4.60;64.30;;;;;;5035130;28;20202;-55
2024/03/24 04:30:37;;;;;;;1.73;1.60;;;4.50;64.60;;;;;;5026769;28;25305;-56
2024/03/24 04:33:03;;;;;;;1.70;1.60;;;4.60;65.00;;;;;;5032743;28;20724;-55
2024/03/24 04:35:29;;;;;;;1.60;1.50;;;4.50;64.70;;;;;;5038621;28;20680;-56
2024/03/24 04:37:55;;;;;;;1.67;1.57;;;4.60;65.00;;;;;;5037415;28;20203;-57
2024/03/24 04:40:22;;;;;;;1.97;1.70;;;4.60;64.90;;;;;;5031832;28;20212;-57
2024/03/24 04:42:48;;;;;;;1.80;1.70;;;4.50;64.90;;;;;;5036111;28;20226;-55
2024/03/24 04:45:15;;;;;;;1.70;1.70;;;4.50;65.10;;;;;;5025198;28;20624;-57
2024/03/24 04:47:42;;;;;;;2.00;1.70;;;4.50;65.20;;;;;;5030011;28;20257;-55
2024/03/24 04:50:08;;;;;;;1.80;1.70;;;4.50;64.60;;;;;;5027521;28;20721;-55
2024/03/24 04:52:35;;;;;;;1.60;1.50;;;4.70;64.20;;;;;;5034777;28;20215;-57
2024/03/24 04:55:01;;;;;;;1.60;1.50;;;4.70;64.30;;;;;;5033855;28;20215;-55
2024/03/24 04:57:27;;;;;;;2.40;1.70;;;4.60;64.10;;;;;;5028334;28;20206;-57
2024/03/24 04:59:53;;;;;;;2.40;1.70;;;4.60;64.50;;;;;;5031803;28;20202;-57
2024/03/24 05:02:19;;;;;;;1.80;1.70;;;4.60;64.70;;;;;;5023885;28;20364;-54
2024/03/24 05:04:45;;;;;;;1.80;1.70;;;4.50;64.20;;;;;;5026907;28;20222;-56
2024/03/24 05:09:56;;;;;;;1.90;1.80;;;4.40;64.70;;;;;;5333542;22;20282;-55
2024/03/24 05:12:22;;;;;;;1.70;1.60;;;4.50;64.70;;;;;;5010215;28;20234;-56
2024/03/24 05:14:48;;;;;;;1.67;1.57;;;4.50;64.60;;;;;;5012534;28;20199;-54
2024/03/24 05:17:14;;;;;;;1.70;1.60;;;4.50;64.80;;;;;;5003047;28;20211;-53
2024/03/24 05:19:41;;;;;;;1.70;1.60;;;4.50;64.40;;;;;;5013552;28;20211;-56
2024/03/24 05:22:06;;;;;;;2.00;1.90;;;4.50;64.40;;;;;;5009880;28;20255;-54
2024/03/24 05:24:35;;;;;;;1.80;1.70;;;4.50;64.10;;;;;;5013823;28;20685;-57
2024/03/24 05:27:01;;;;;;;1.70;1.60;;;4.50;64.60;;;;;;5012436;28;20207;-57
2024/03/24 05:29:27;;;;;;;1.80;1.70;;;4.50;64.30;;;;;;5013390;28;20299;-56
2024/03/24 05:31:53;;;;;;;2.00;1.60;;;4.50;64.40;;;;;;5012600;28;20588;-53
2024/03/24 05:34:19;;;;;;;1.73;1.63;;;4.50;64.20;;;;;;5013231;28;20209;-57
2024/03/24 05:36:45;;;;;;;1.80;1.70;;;4.50;63.80;;;;;;5009045;28;20203;-56
2024/03/24 05:39:12;;;;;;;1.83;1.73;;;4.40;64.40;;;;;;5009852;28;20211;-56
2024/03/24 05:41:37;;;;;;;1.80;1.70;;;4.50;64.90;;;;;;5012990;28;20246;-57
2024/03/24 05:44:04;;;;;;;1.70;1.60;;;4.40;64.40;;;;;;5013156;28;20203;-56
2024/03/24 05:46:29;;;;;;;1.73;1.63;;;4.50;65.00;;;;;;5012054;28;20781;-55
2024/03/24 05:48:56;;;;;;;2.43;1.97;;;4.60;65.30;;;;;;5012860;28;20228;-55
2024/03/24 05:51:21;;;;;;;1.70;1.60;;;4.50;64.90;;;;;;5012852;28;20234;-53
2024/03/24 05:53:48;;;;;;;1.50;1.40;;;4.50;65.60;;;;;;5012824;28;20606;-54
2024/03/24 05:56:14;;;;;;;1.60;1.50;;;4.50;64.80;;;;;;5001027;28;20654;-54
2024/03/24 05:58:41;;;;;;;1.67;1.60;;;4.40;65.70;;;;;;5012531;28;20235;-55
2024/03/24 06:01:06;;;;;;;2.40;2.20;;;4.40;66.00;;;;;;5011998;28;20259;-56
2024/03/24 06:03:33;;;;;;;1.60;1.60;;;4.30;65.50;;;;;;5005885;28;20204;-56
2024/03/24 06:05:58;;;;;;;1.77;1.67;;;4.20;66.30;;;;;;5008752;28;20208;-54
2024/03/24 06:08:25;;;;;;;1.80;1.70;;;4.20;67.20;;;;;;5012568;28;20217;-56
2024/03/24 06:10:53;;;;;;;1.80;1.70;;;4.30;67.00;;;;;;5011786;28;20742;-56
2024/03/24 06:13:20;;;;;;;1.70;1.60;;;4.40;66.00;;;;;;5008772;28;20631;-56
2024/03/24 06:15:46;;;;;;;2.30;2.20;;;4.40;66.30;;;;;;5012818;28;20599;-54
2024/03/24 06:18:12;;;;;;;1.97;1.70;;;4.60;66.60;;;;;;5010831;28;20199;-57
2024/03/24 06:20:38;;;;;;;2.03;1.80;;;4.70;65.30;;;;;;5011706;28;20289;-56
2024/03/24 06:23:05;;;;;;;1.73;1.63;;;4.80;65.00;;;;;;5012092;28;20228;-54
2024/03/24 06:25:31;;;;;;;1.80;1.70;;;4.70;65.30;;;;;;5012331;28;20211;-53
2024/03/24 06:27:58;;;;;;;1.60;1.50;;;4.80;65.10;;;;;;5007737;28;20767;-56
2024/03/24 06:30:24;;;;;;;1.77;1.60;;;4.90;64.70;;;;;;5008511;28;20233;-55
2024/03/24 06:32:50;;;;;;;1.80;1.70;;;4.80;64.00;;;;;;5010284;28;20690;-56
2024/03/24 06:35:16;;;;;;;1.43;1.43;;;4.80;64.00;;;;;;5010263;28;20203;-56
2024/03/24 06:40:25;;;;;;;1.50;1.50;;;4.80;63.40;;;;;;5310098;22;20757;-56
2024/03/24 06:45:35;;;;;;;2.20;1.90;;;5.10;62.20;;;;;;5008533;28;20339;-53
2024/03/24 06:48:01;;;;;;;2.00;1.90;;;5.20;62.40;;;;;;5007217;28;20295;-57
2024/03/24 06:50:27;;;;;;;1.70;1.60;;;5.30;62.20;;;;;;5005233;28;20652;-55
2024/03/24 06:52:53;;;;;;;1.70;1.60;;;5.50;61.30;;;;;;5010611;28;20225;-56
2024/03/24 06:55:19;;;;;;;1.80;1.70;;;5.50;61.70;;;;;;5013307;28;20685;-56
2024/03/24 06:57:45;;;;;;;1.83;1.73;;;5.60;61.00;;;;;;5013841;28;20215;-56
2024/03/24 07:00:13;;;;;;;1.83;1.73;;;5.70;61.30;;;;;;5006789;28;20200;-56
2024/03/24 07:02:39;;;;;;;1.60;1.60;;;5.70;60.40;;;;;;5005754;28;20220;-56
2024/03/24 07:05:05;;;;;;;1.80;1.70;;;5.60;60.90;;;;;;5008728;28;20686;-55
2024/03/24 07:07:33;;;;;;;1.90;1.80;;;5.90;60.80;;;;;;5012223;28;20213;-55
2024/03/24 07:09:58;;;;;;;1.80;1.50;;;6.30;58.70;;;;;;5006679;28;20264;-55
2024/03/24 07:12:25;;;;;;;2.50;1.83;;;6.60;57.90;;;;;;5007548;28;20222;-56
2024/03/24 07:14:51;;;;;;;2.10;1.97;;;6.70;57.80;;;;;;5009162;28;20679;-53
2024/03/24 07:17:17;;;;;;;1.90;1.80;;;6.90;57.00;;;;;;5010898;28;20228;-51
2024/03/24 07:19:43;;;;;;;2.03;1.80;;;6.90;57.10;;;;;;5012076;28;20214;-52
2024/03/24 07:22:10;;;;;;;1.50;1.40;;;6.80;57.40;;;;;;5006542;28;20622;-51
2024/03/24 07:24:36;;;;;;;1.90;1.80;;;6.70;56.80;;;;;;5011990;28;20580;-53
2024/03/24 07:27:02;;;;;;;1.70;1.60;;;6.60;57.50;;;;;;5011936;28;20217;-51
2024/03/24 07:29:29;;;;;;;1.63;1.53;;;6.50;56.50;;;;;;5011788;28;20703;-54
2024/03/24 07:31:54;;;;;;;2.00;1.70;;;6.40;55.90;;;;;;5015062;28;20233;-56
2024/03/24 07:34:21;;;;;;;1.87;1.60;;;6.60;56.70;;;;;;5014029;28;20305;-55
2024/03/24 07:36:47;;;;;;;1.80;1.70;;;6.80;56.20;;;;;;5003259;28;20213;-52
2024/03/24 07:39:13;;;;;;;2.27;2.10;;;6.70;56.60;;;;;;5011223;28;20661;-55
2024/03/24 07:41:39;;;;;;;1.90;1.60;;;6.70;56.10;;;;;;5013289;28;20233;-55
2024/03/24 07:44:05;;;;;;;1.60;1.50;;;6.60;55.60;;;;;;5007942;28;20208;-52
2024/03/24 07:46:31;;;;;;;1.70;1.60;;;6.60;55.20;;;;;;5002229;28;20234;-53
2024/03/24 07:48:57;;;;;;;1.90;1.80;;;6.80;54.50;;;;;;5010359;28;20561;-53
2024/03/24 07:51:23;;;;;;;1.90;1.70;;;6.90;52.90;;;;;;4993824;28;20732;-51
2024/03/24 07:53:50;;;;;;;1.60;1.53;;;7.10;53.60;;;;;;5001490;28;20207;-60
2024/03/24 07:56:15;;;;;;;1.50;1.40;;;7.30;53.80;;;;;;4998860;28;20405;-60
2024/03/24 07:58:42;;;;;;;1.60;1.50;;;7.90;53.50;;;;;;5008075;28;20309;-51
2024/03/24 08:01:08;;;;;;;1.93;1.80;;;8.00;55.50;;;;;;4996157;28;20712;-51
2024/03/24 08:03:35;;;;;;;1.70;1.60;;;7.50;55.80;;;;;;5014522;28;20253;-50
2024/03/24 08:06:00;;;;;;;2.00;1.80;;;7.20;57.30;;;;;;5005239;28;20206;-49
2024/03/24 08:08:27;;;;;;;1.70;1.60;;;7.10;59.10;;;;;;5008293;28;20293;-50
2024/03/24 08:10:53;;;;;;;1.80;1.70;;;7.00;60.80;;;;;;5005534;28;20692;-50
2024/03/24 08:13:20;;;;;;;1.73;1.70;;;7.00;64.30;;;;;;5000889;28;20257;-51
2024/03/24 08:15:46;;;;;;;1.60;1.50;;;7.00;69.40;;;;;;5008963;28;20236;-53
2024/03/24 08:18:14;;;;;;;1.70;1.60;;;6.80;63.70;;;;;;4998524;28;20728;-51
2024/03/24 08:20:39;;;;;;;1.30;1.30;;;6.70;60.20;;;;;;5014768;28;20213;-52
2024/03/24 08:23:06;;;;;;;1.60;1.50;;;6.40;59.10;;;;;;4998740;28;20705;-52
2024/03/24 08:25:31;;;;;;;1.50;1.50;;;6.30;58.40;;;;;;5007027;28;20276;-53
2024/03/24 08:27:58;;;;;;;1.60;1.50;;;6.10;58.80;;;;;;5001005;28;20213;-52
2024/03/24 08:30:23;;;;;;;1.90;1.80;;;5.90;59.20;;;;;;5008355;28;20209;-52
2024/03/24 08:32:50;;;;;;;1.50;1.40;;;6.00;59.70;;;;;;4977124;28;20228;-56
2024/03/24 08:35:16;;;;;;;1.60;1.50;;;5.90;60.60;;;;;;5005146;28;20220;-52
2024/03/24 08:37:43;;;;;;;1.70;1.60;;;5.80;61.60;;;;;;5009391;28;20204;-52
2024/03/24 08:40:08;;;;;;;2.13;1.70;;;5.70;62.20;;;;;;5010425;28;20306;-56
2024/03/24 08:42:35;;;;;;;2.07;1.90;;;5.50;63.80;;;;;;4990669;28;20232;-54
2024/03/24 08:45:01;;;;;;;1.77;1.70;;;5.60;64.10;;;;;;4998345;28;20209;-52
2024/03/24 08:47:27;;;;;;;1.67;1.60;;;5.60;63.90;;;;;;4998608;28;20208;-52
2024/03/24 08:49:53;;;;;;;1.70;1.60;;;5.70;62.80;;;;;;5012568;28;20205;-51
2024/03/24 08:52:19;;;;;;;1.60;1.60;;;5.60;63.70;;;;;;5008554;28;20229;-53
2024/03/24 08:54:45;;;;;;;1.67;1.57;;;5.50;62.50;;;;;;5000630;28;20215;-52
2024/03/24 08:57:11;;;;;;;1.87;1.60;;;5.60;62.70;;;;;;5012144;28;20207;-56
2024/03/24 08:59:37;;;;;;;1.70;1.60;;;5.60;61.80;;;;;;5003308;28;20315;-51
2024/03/24 09:02:03;;;;;;;1.67;1.57;;;5.50;61.80;;;;;;5010909;28;20314;-52
2024/03/24 09:04:29;;;;;;;2.00;1.80;;;5.40;61.90;;;;;;5005198;28;20213;-55
2024/03/24 09:06:56;;;;;;;1.90;1.80;;;5.50;62.20;;;;;;4995022;28;20307;-52
2024/03/24 09:09:21;;;;;;;1.70;1.60;;;5.50;62.20;;;;;;5000685;28;20204;-52
2024/03/24 09:11:48;;;;;;;1.90;1.80;;;5.50;62.00;;;;;;4997074;28;20309;-53
2024/03/24 09:14:14;;;;;;;1.80;1.70;;;5.40;63.40;;;;;;5006319;28;20212;-54
2024/03/24 09:16:40;;;;;;;1.93;1.83;;;5.30;63.90;;;;;;4997573;28;20219;-56
2024/03/24 09:19:06;;;;;;;1.80;1.70;;;5.20;63.40;;;;;;4987168;28;20244;-52
2024/03/24 09:21:32;;;;;;;1.60;1.60;;;5.20;63.80;;;;;;4983176;28;20606;-54
2024/03/24 09:23:58;;;;;;;1.87;1.77;;;5.10;64.50;;;;;;4980013;28;20220;-51
2024/03/24 09:26:25;;;;;;;1.83;1.73;;;5.20;64.50;;;;;;4996075;28;20208;-52
2024/03/24 09:28:50;;;;;;;2.23;1.93;;;5.40;64.30;;;;;;4986469;28;20206;-53
2024/03/24 09:31:17;;;;;;;1.80;1.70;;;5.70;63.50;;;;;;4975346;28;20297;-52
2024/03/24 09:33:43;;;;;;;2.20;2.00;;;6.20;62.40;;;;;;4986571;28;20206;-51
2024/03/24 09:36:11;;;;;;;1.70;1.60;;;;;;;;;;4985179;28;20214;-56
2024/03/24 09:38:38;;;;;;;1.70;1.60;;;7.30;57.30;;;;;;4975193;28;20212;-56
2024/03/24 09:41:05;;;;;;;1.23;1.23;;;;;;;;;;4956793;28;20225;-55
2024/03/24 09:43:31;;;;;;;1.33;1.33;;;7.40;57.00;;;;;;4960441;28;20208;-52
2024/03/24 09:45:58;;;;;;;1.50;1.47;;;7.10;63.20;;;;;;4977897;28;20210;-51
2024/03/24 09:48:23;;;;;;;1.70;1.60;;;7.40;63.70;;;;;;4972710;28;20219;-51
2024/03/24 09:50:50;;;;;;;1.40;1.40;;;7.60;76.70;;;;;;4975016;28;20214;-52
2024/03/24 09:53:15;;;;;;;1.50;1.50;;;7.50;67.70;;;;;;4977403;28;20247;-53
2024/03/24 09:55:43;;;;;;;1.50;1.50;;;;;;;;;;4973404;28;20678;-59
2024/03/24 09:58:09;;;;;;;1.53;1.50;;;;;;;;;;4988110;28;20645;-59
2024/03/24 10:00:36;;;;;;;2.00;1.90;;;;;;;;;;4984369;28;20213;-60
2024/03/24 10:03:02;;;;;;;2.10;1.90;;;8.70;53.90;;;;;;4992807;28;20264;-59
2024/03/24 10:05:30;;;;;;;1.70;1.60;;;8.20;53.70;;;;;;4987713;28;20683;-56
2024/03/24 10:07:55;;;;;;;1.50;1.40;;;8.10;53.40;;;;;;4990957;28;20211;-58
2024/03/24 10:10:22;;;;;;;1.80;1.70;;;7.60;54.80;;;;;;5001871;28;20204;-60
2024/03/24 10:12:48;;;;;;;1.40;1.40;;;7.50;56.70;;;;;;5001466;28;20233;-59
2024/03/24 10:15:14;;;;;;;1.50;1.40;;;8.30;53.60;;;;;;4978062;28;20245;-60
2024/03/24 10:17:40;;;;;;;1.57;1.50;;;9.10;50.00;;;;;;4986014;28;20296;-59
2024/03/24 10:20:07;;;;;;;1.87;1.77;;;9.20;48.30;;;;;;4991359;28;20245;-60
2024/03/24 10:22:33;;;;;;;1.40;1.30;;;;;;;;;;4988563;28;20246;-59
2024/03/24 10:24:59;;;;;;;1.50;1.40;;;10.10;45.90;;;;;;4986605;28;20210;-60
2024/03/24 10:27:25;;;;;;;1.20;1.20;;;10.10;46.00;;;;;;4999633;28;20238;-59
2024/03/24 10:29:53;;;;;;;1.70;1.60;;;9.10;47.20;;;;;;4994454;28;20218;-57
2024/03/24 10:32:19;;;;;;;1.53;1.43;;;8.60;48.80;;;;;;4995070;28;20225;-60
2024/03/24 10:34:45;;;;;;;1.90;1.50;;;8.20;49.80;;;;;;4989098;28;20231;-60
2024/03/24 10:37:12;;;;;;;1.60;1.53;;;7.90;49.90;;;;;;4997352;28;20211;-60
2024/03/24 10:39:38;;;;;;;1.53;1.50;;;7.60;50.20;;;;;;5001351;28;20211;-57
2024/03/24 10:42:04;;;;;;;1.40;1.40;;;7.50;52.40;;;;;;4993235;28;20242;-59
2024/03/24 10:44:30;;;;;;;1.70;1.60;;;7.30;52.60;;;;;;5000080;28;20661;-60
2024/03/24 10:46:57;;;;;;;1.50;1.40;;;7.20;52.70;;;;;;4985375;28;20287;-62
2024/03/24 10:49:22;;;;;;;2.30;2.10;;;7.20;53.60;;;;;;4979794;28;20710;-61
2024/03/24 10:51:49;;;;;;;1.90;1.80;;;7.30;53.90;;;;;;4983032;28;20313;-59
2024/03/24 10:54:14;;;;;;;2.00;1.90;;;7.20;53.60;;;;;;4999076;28;20225;-60
2024/03/24 10:56:41;;;;;;;2.30;2.20;;;7.30;54.20;;;;;;4992828;28;20546;-60
2024/03/24 10:59:07;;;;;;;1.87;1.77;;;7.20;52.10;;;;;;4998210;28;20218;-60
2024/03/24 11:01:33;;;;;;;1.87;1.70;;;7.60;51.60;;;;;;4992370;28;20330;-58
2024/03/24 11:03:59;;;;;;;1.70;1.60;;;8.90;49.40;;;;;;4991599;28;20700;-59
2024/03/24 11:06:25;;;;;;;1.70;1.60;;;9.20;46.80;;;;;;4992443;28;20204;-59
2024/03/24 11:08:51;;;;;;;1.60;1.50;;;9.30;46.50;;;;;;4998711;28;20280;-59
2024/03/24 11:11:18;;;;;;;1.63;1.53;;;9.30;45.40;;;;;;4995343;28;20657;-60
2024/03/24 11:13:43;;;;;;;1.60;1.50;;;8.90;46.70;;;;;;4998100;28;20207;-58
2024/03/24 11:16:10;;;;;;;1.73;1.63;;;8.80;46.90;;;;;;4986369;28;20302;-59
2024/03/24 11:18:35;;;;;;;1.90;1.53;;;8.80;46.20;;;;;;4997772;28;20219;-58
2024/03/24 11:21:02;;;;;;;1.70;1.60;;;8.20;46.60;;;;;;4987004;28;20295;-59
2024/03/24 11:23:28;;;;;;;1.40;1.40;;;8.10;48.40;;;;;;4999780;28;20280;-58
2024/03/24 11:25:56;;;;;;;2.03;1.80;;;8.10;46.70;;;;;;4994335;28;20204;-59
2024/03/24 11:28:21;;;;;;;1.60;1.50;;;8.00;47.10;;;;;;4982206;28;20577;-58
2024/03/24 11:30:48;;;;;;;1.90;1.80;;;7.80;45.90;;;;;;4987309;28;20292;-57
2024/03/24 11:33:13;;;;;;;1.70;1.60;;;7.70;46.80;;;;;;4984635;28;20227;-59
2024/03/24 11:35:42;;;;;;;2.33;2.20;;;7.60;48.00;;;;;;4981629;28;20215;-60
2024/03/24 11:38:13;;;;;;;1.70;1.60;;;7.60;49.20;;;;;;4988615;28;20208;-56
2024/03/24 11:40:40;;;;;;;1.60;1.50;;;7.70;49.00;;;;;;4988658;28;20706;-59
2024/03/24 11:43:06;;;;;;;1.90;1.80;;;7.70;48.10;;;;;;4985093;28;20235;-59
2024/03/24 11:45:33;;;;;;;1.70;1.60;;;7.60;48.00;;;;;;4995051;28;20215;-60
2024/03/24 11:47:58;;;;;;;1.60;1.50;;;7.60;49.10;;;;;;4975710;28;20222;-59
2024/03/24 11:50:25;;;;;;;1.40;1.40;;;7.50;48.40;;;;;;4993347;28;20207;-59
2024/03/24 11:52:50;;;;;;;1.80;1.57;;;7.60;49.20;;;;;;4989958;28;20219;-59
2024/03/24 11:55:17;;;;;;;1.80;1.70;;;7.60;49.70;;;;;;4992932;28;20245;-59
2024/03/24 11:57:43;;;;;;;1.50;1.40;;;7.60;50.30;;;;;;4987767;28;20211;-57
2024/03/24 12:00:10;;;;;;;1.97;1.87;;;7.60;50.40;;;;;;4981242;28;20626;-58
2024/03/24 12:02:35;;;;;;;1.87;1.77;;;7.60;50.10;;;;;;4988714;28;20586;-59
2024/03/24 12:05:02;;;;;;;1.60;1.50;;;7.50;50.40;;;;;;4991438;28;20217;-59
2024/03/24 12:07:28;;;;;;;1.70;1.60;;;7.40;50.30;;;;;;4993341;28;20229;-59
2024/03/24 12:09:55;;;;;;;1.77;1.67;;;7.50;50.40;;;;;;4986532;28;20614;-59
2024/03/24 12:12:20;;;;;;;1.70;1.60;;;7.40;50.60;;;;;;4999376;28;20317;-57
2024/03/24 12:14:47;;;;;;;1.93;1.80;;;7.40;51.10;;;;;;4989211;28;20239;-60
2024/03/24 12:17:12;;;;;;;1.83;1.73;;;7.30;52.20;;;;;;4992340;28;20206;-59
2024/03/24 12:19:39;;;;;;;1.80;1.70;;;7.40;51.60;;;;;;4989219;28;20291;-58
2024/03/24 12:22:04;;;;;;;1.70;1.60;;;7.40;51.30;;;;;;4990794;28;20321;-59
2024/03/24 12:24:31;;;;;;;1.83;1.60;;;7.40;50.00;;;;;;5008727;28;20642;-59
2024/03/24 12:26:57;;;;;;;1.50;1.40;;;7.10;51.40;;;;;;4984914;28;20672;-59
2024/03/24 12:29:23;;;;;;;1.70;1.50;;;8.10;51.00;;;;;;4988649;28;20200;-59
2024/03/24 12:31:49;;;;;;;1.67;1.40;;;9.20;53.70;;;;;;4985927;28;20227;-61
2024/03/24 12:34:16;;;;;;;1.30;1.30;;;;;;;;;;4988124;28;20217;-60
2024/03/24 12:36:41;;;;;;;1.10;1.10;;;9.30;75.20;;;;;;5000794;28;20238;-58
2024/03/24 12:39:08;;;;;;;1.50;1.40;;;8.90;46.60;;;;;;4991817;28;20211;-60
2024/03/24 12:41:34;;;;;;;1.40;1.30;;;8.10;49.80;;;;;;4992187;28;20512;-60
2024/03/24 12:44:00;;;;;;;1.87;1.53;;;8.00;49.60;;;;;;4980991;28;20280;-60
2024/03/24 12:46:26;;;;;;;1.60;1.50;;;7.70;50.80;;;;;;5002594;28;20204;-60
2024/03/24 12:48:52;;;;;;;1.73;1.60;;;7.30;52.60;;;;;;4994987;28;20207;-60
2024/03/24 12:51:18;;;;;;;1.77;1.67;;;7.40;55.00;;;;;;4996975;28;20582;-60
2024/03/24 12:53:44;;;;;;;2.13;2.00;;;7.00;56.40;;;;;;4987510;28;20200;-60
2024/03/24 12:56:10;;;;;;;2.03;1.83;;;6.70;86.90;;;;;;4993115;28;20290;-60
2024/03/24 12:58:36;;;;;;;1.80;1.70;;;6.90;89.50;;;;;;4990762;28;20239;-57
2024/03/24 13:01:02;;;;;;;2.30;1.87;;;6.80;87.10;;;;;;4985297;28;20212;-59